Terminal Aerodrome Forecast
Issued by NWS

Home | Current Version | Previous Version | Text Only | Print | Product List | Glossary On
Versions: 1 2 3 4 5 6 7 8 9 10 11 12 13 14 15 16 17 18 19 20 21 22 23 24
000
FTUS43 KGLD 212320
TAFMCK
TAF
KMCK 212320Z 2200/2224 17010KT P6SM BKN100
     FM220500 26012G16KT P6SM VCSH BKN060
      TEMPO 2205/2209 5SM -RA OVC030
     FM221000 30020G30KT P6SM SCT050 BKN100=

USA.gov is the U.S. government's official web portal to all federal, state and local government web resources and services.